Time;durP1;ratioP1;P1;durP2;ratioP2;P2;SDS_P1;SDS_P2;PMS_P1;PMS_P2;Temp;Humidity;BMP_temperature;BMP_pressure;BME280_temperature;BME280_humidity;BME280_pressure;Samples;Min_cycle;Max_cycle;Signal;HPM_P1;HPM_P2
2023/01/12 00:02:09;;;;;;;53.83;5.65;;;;;;;8.55;100.00;100795.09;5045359;28;20539;-39
2023/01/12 00:04:34;;;;;;;51.10;5.43;;;;;;;8.52;100.00;100784.72;5032250;28;20422;-39
2023/01/12 00:07:03;;;;;;;46.60;5.78;;;;;;;8.48;100.00;100798.66;5035513;28;20044;-39
2023/01/12 00:09:28;;;;;;;56.25;5.63;;;;;;;8.43;100.00;100769.66;5047446;28;20032;-41
2023/01/12 00:11:54;;;;;;;56.05;5.95;;;;;;;8.42;100.00;100791.28;5038929;28;20176;-44
2023/01/12 00:14:19;;;;;;;51.88;6.45;;;;;;;8.42;100.00;100778.69;5050746;28;20036;-42
2023/01/12 00:16:44;;;;;;;61.58;6.97;;;;;;;8.39;100.00;100779.03;5042182;28;20069;-41
2023/01/12 00:19:14;;;;;;;68.07;6.10;;;;;;;8.36;100.00;100774.81;5035866;28;20030;-42
2023/01/12 00:24:34;;;;;;;71.70;6.90;;;;;;;8.37;100.00;100770.28;5030559;28;20071;-43
2023/01/12 00:27:03;;;;;;;80.57;8.80;;;;;;;8.39;100.00;100773.66;5031532;28;20543;-42
2023/01/12 00:29:28;;;;;;;104.38;8.02;;;;;;;8.42;100.00;100778.69;5030467;28;20116;-43
2023/01/12 00:31:55;;;;;;;81.13;10.52;;;;;;;8.40;100.00;100791.47;5046386;28;20096;-43
2023/01/12 00:34:20;;;;;;;84.65;8.02;;;;;;;8.40;100.00;100770.00;5035479;28;20069;-43
2023/01/12 00:36:46;;;;;;;102.55;9.60;;;;;;;8.41;100.00;100766.31;5030392;28;20535;-43
2023/01/12 00:39:12;;;;;;;98.20;9.60;;;;;;;8.41;100.00;100755.56;5043663;28;20434;-43
2023/01/12 00:47:08;;;;;;;90.07;9.15;;;;;;;8.43;100.00;100737.47;5029939;28;20127;-44
2023/01/12 00:49:34;;;;;;;96.18;11.07;;;;;;;8.49;100.00;100738.63;5031392;28;20021;-41
2023/01/12 00:52:00;;;;;;;96.13;9.73;;;;;;;8.50;100.00;100732.25;5033350;28;20026;-42
2023/01/12 00:54:25;;;;;;;101.65;10.40;;;;;;;8.53;100.00;100721.16;5030551;28;20036;-42
2023/01/12 00:56:50;;;;;;;98.32;10.60;;;;;;;8.53;100.00;100735.44;5030943;28;20095;-42
2023/01/12 00:59:16;;;;;;;112.63;10.57;;;;;;;8.63;100.00;100737.09;5038874;28;20029;-42
2023/01/12 01:01:41;;;;;;;117.68;11.52;;;;;;;8.64;100.00;100731.56;5033601;28;20057;-42
2023/01/12 01:04:06;;;;;;;103.72;11.38;;;;;;;8.68;100.00;100724.00;5031044;28;20119;-43
2023/01/12 01:06:32;;;;;;;103.93;10.85;;;;;;;8.68;100.00;100713.25;5030326;28;20022;-43
2023/01/12 01:08:57;;;;;;;105.22;10.50;;;;;;;8.69;100.00;100715.78;5030470;28;20029;-42
2023/01/12 01:11:23;;;;;;;98.75;10.13;;;;;;;8.70;100.00;100721.97;5038070;28;20025;-41
2023/01/12 01:13:48;;;;;;;99.13;9.70;;;;;;;8.72;100.00;100736.06;5031021;28;20471;-41
2023/01/12 01:16:15;;;;;;;106.47;9.27;;;;;;;8.74;100.00;100704.50;5046983;28;20029;-42
2023/01/12 01:18:41;;;;;;;92.97;9.05;;;;;;;8.73;100.00;100709.03;5033340;28;20026;-43
2023/01/12 01:21:11;;;;;;;80.47;8.93;;;;;;;8.75;100.00;100722.31;5040524;28;20044;-43
2023/01/12 01:23:37;;;;;;;88.60;8.13;;;;;;;8.74;100.00;100702.69;5030711;28;20030;-43
2023/01/12 01:26:12;;;;;;;82.70;7.78;;;;;;;8.75;100.00;100698.16;5030223;28;20373;-43
2023/01/12 01:28:37;;;;;;;76.82;8.00;;;;;;;8.75;100.00;100711.56;5030931;28;20065;-43
2023/01/12 01:31:03;;;;;;;69.55;6.70;;;;;;;8.75;100.00;100711.56;5030994;28;20049;-43
2023/01/12 01:33:30;;;;;;;66.95;7.95;;;;;;;8.75;100.00;100711.56;5029150;28;20025;-43
2023/01/12 01:35:55;;;;;;;53.35;6.38;;;;;;;8.72;100.00;100717.28;5030114;28;20544;-44
2023/01/12 01:38:21;;;;;;;55.40;6.25;;;;;;;8.76;100.00;100699.81;5036823;28;20057;-43
2023/01/12 01:40:47;;;;;;;53.13;5.97;;;;;;;8.74;100.00;100693.78;5035670;28;20032;-43
2023/01/12 01:43:13;;;;;;;50.38;5.18;;;;;;;8.76;100.00;100697.13;5044454;28;20537;-43
2023/01/12 01:45:41;;;;;;;49.70;5.68;;;;;;;8.74;100.00;100683.03;5042319;28;20032;-43
2023/01/12 01:48:08;;;;;;;59.67;6.07;;;;;;;8.72;100.00;100671.69;5032719;28;20136;-43
2023/01/12 01:50:35;;;;;;;50.72;6.07;;;;;;;8.73;100.00;100673.34;5037785;28;20029;-43
2023/01/12 01:53:05;;;;;;;51.33;5.80;;;;;;;8.73;100.00;100670.66;5028650;28;20021;-42
2023/01/12 01:55:38;;;;;;;49.13;4.57;;;;;;;8.71;100.00;100659.25;5028713;28;20138;-43
2023/01/12 01:58:12;;;;;;;52.58;6.00;;;;;;;8.68;100.00;100655.06;5030345;28;20120;-44
2023/01/12 02:00:38;;;;;;;37.72;4.75;;;;;;;8.68;100.00;100638.97;5028441;28;20091;-43
2023/01/12 02:03:04;;;;;;;58.53;6.10;;;;;;;8.70;100.00;100636.13;5029392;28;20133;-43
2023/01/12 02:05:29;;;;;;;48.60;5.15;;;;;;;8.67;100.00;100636.47;5029825;28;20516;-42
2023/01/12 02:07:59;;;;;;;51.38;5.22;;;;;;;8.68;100.00;100622.88;5029600;28;20026;-43
2023/01/12 02:10:24;;;;;;;58.13;6.53;;;;;;;8.69;100.00;100635.28;5032597;28;20108;-43
2023/01/12 02:16:21;;;;;;;66.28;6.45;;;;;;;8.73;100.00;100603.56;5030063;28;20060;-43
2023/01/12 02:19:14;;;;;;;66.13;7.00;;;;;;;8.77;100.00;100594.16;5033561;28;20052;-44
2023/01/12 02:21:48;;;;;;;67.53;6.65;;;;;;;8.82;100.00;100613.25;5040686;28;20115;-42
2023/01/12 02:24:22;;;;;;;73.80;8.65;;;;;;;8.82;100.00;100590.94;5038903;28;20033;-43
2023/01/12 02:26:54;;;;;;;78.70;8.73;;;;;;;8.82;100.00;100597.16;5034715;28;20040;-44
2023/01/12 02:29:50;;;;;;;51.00;7.03;;;;;;;8.79;100.00;100589.44;5029154;28;20392;-45
2023/01/12 02:32:27;;;;;;;55.97;6.90;;;;;;;8.71;100.00;100590.31;5039530;28;20033;-45
2023/01/12 02:34:58;;;;;;;62.85;5.72;;;;;;;8.66;100.00;100589.19;5032504;28;20519;-45
2023/01/12 02:37:35;;;;;;;57.50;6.07;;;;;;;8.57;100.00;100589.22;5029142;28;20044;-45
2023/01/12 02:40:10;;;;;;;58.88;6.63;;;;;;;8.49;100.00;100578.53;5027655;28;20029;-45
2023/01/12 02:43:12;;;;;;;44.95;4.38;;;;;;;8.39;100.00;100559.13;5036638;28;20030;-45
2023/01/12 02:45:59;;;;;;;39.50;4.70;;;;;;;8.31;100.00;100568.03;5029445;28;20048;-45
2023/01/12 02:48:39;;;;;;;48.58;5.28;;;;;;;8.25;100.00;100544.59;5028753;28;20029;-45
2023/01/12 02:51:20;;;;;;;45.50;5.68;;;;;;;8.25;100.00;100525.00;5027623;28;20459;-45
2023/01/12 02:53:49;;;;;;;49.33;4.90;;;;;;;8.22;100.00;100514.63;5035689;28;20064;-45
2023/01/12 02:56:21;;;;;;;47.80;4.30;;;;;;;8.18;100.00;100495.34;5039103;28;20029;-45
2023/01/12 02:58:51;;;;;;;46.25;4.78;;;;;;;8.20;100.00;100485.31;5031870;28;20112;-45
2023/01/12 03:01:18;;;;;;;44.50;4.32;;;;;;;8.22;100.00;100483.28;5034327;28;20120;-45
2023/01/12 03:03:44;;;;;;;46.90;4.72;;;;;;;8.23;100.00;100505.56;5027934;28;20174;-45
2023/01/12 03:06:15;;;;;;;41.53;4.13;;;;;;;8.23;100.00;100489.47;5027278;28;20033;-45
2023/01/12 03:08:40;;;;;;;32.45;3.45;;;;;;;8.21;100.00;100459.31;5029444;28;20081;-45
2023/01/12 03:11:11;;;;;;;38.42;4.53;;;;;;;8.17;100.00;100437.41;5032087;28;20033;-45
2023/01/12 03:13:39;;;;;;;29.92;3.28;;;;;;;8.14;100.00;100429.72;5050492;28;20108;-45
2023/01/12 03:16:05;;;;;;;23.40;3.63;;;;;;;8.09;100.00;100424.88;5043067;28;20041;-45
2023/01/12 03:18:57;;;;;;;37.97;3.70;;;;;;;8.10;100.00;100409.63;5042422;28;20033;-45
2023/01/12 03:21:32;;;;;;;23.25;3.13;;;;;;;8.09;100.00;100398.06;5032394;28;20049;-45
2023/01/12 03:24:04;;;;;;;24.20;3.47;;;;;;;8.10;100.00;100378.28;5039082;28;20029;-45
2023/01/12 03:26:31;;;;;;;21.52;2.85;;;;;;;8.08;100.00;100358.91;5034592;28;20106;-45
2023/01/12 03:29:30;;;;;;;30.90;4.18;;;;;;;8.07;100.00;100394.72;5032294;28;20067;-45
2023/01/12 03:31:56;;;;;;;25.45;4.55;;;;;;;8.02;100.00;100375.66;5034509;28;20069;-45
2023/01/12 03:34:21;;;;;;;28.58;3.33;;;;;;;8.02;100.00;100377.53;5031998;28;20519;-45
2023/01/12 03:37:11;;;;;;;32.65;3.95;;;;;;;8.02;100.00;100370.31;5032400;28;20030;-45
2023/01/12 03:39:47;;;;;;;26.83;3.85;;;;;;;8.00;100.00;100358.09;5031868;28;20129;-45
2023/01/12 03:42:30;;;;;;;31.25;4.57;;;;;;;8.01;100.00;100360.59;5034012;28;20026;-44
2023/01/12 03:45:14;;;;;;;34.40;3.97;;;;;;;7.99;100.00;100351.91;5030381;28;20037;-45
2023/01/12 03:47:40;;;;;;;31.88;3.88;;;;;;;7.96;100.00;100349.59;5037009;28;20021;-45
2023/01/12 03:50:19;;;;;;;25.50;3.88;;;;;;;7.94;100.00;100350.78;5036610;28;20057;-45
2023/01/12 03:52:46;;;;;;;29.45;4.60;;;;;;;7.92;100.00;100350.94;5041066;28;20036;-46
2023/01/12 03:55:15;;;;;;;30.85;4.10;;;;;;;7.91;100.00;100335.88;5042030;28;20040;-45
2023/01/12 03:57:42;;;;;;;27.67;4.40;;;;;;;7.90;100.00;100326.19;5036775;28;20052;-45
2023/01/12 04:00:10;;;;;;;33.88;4.47;;;;;;;7.89;100.00;100319.16;5045411;28;20025;-45
2023/01/12 04:02:35;;;;;;;32.33;5.20;;;;;;;7.86;100.00;100300.75;5044183;28;20072;-45
2023/01/12 04:05:01;;;;;;;27.52;5.40;;;;;;;7.86;100.00;100322.19;5031788;28;20049;-44
2023/01/12 04:07:26;;;;;;;31.55;5.35;;;;;;;7.84;100.00;100306.28;5035563;28;20036;-45
2023/01/12 04:09:51;;;;;;;23.75;4.78;;;;;;;7.83;100.00;100311.81;5049014;28;20025;-45
2023/01/12 04:12:17;;;;;;;25.33;4.78;;;;;;;7.83;100.00;100303.78;5037194;28;20028;-45
2023/01/12 04:14:44;;;;;;;31.20;4.68;;;;;;;7.82;100.00;100297.59;5035502;28;20040;-45
2023/01/12 04:17:12;;;;;;;15.13;4.10;;;;;;;7.81;100.00;100298.59;5046014;28;20026;-45
2023/01/12 04:19:38;;;;;;;21.90;4.65;;;;;;;7.82;100.00;100299.41;5031402;28;20021;-45
2023/01/12 04:24:47;;;;;;;26.83;4.38;;;;;;;7.82;100.00;100267.28;5042207;28;20451;-44
2023/01/12 04:27:14;;;;;;;25.88;4.35;;;;;;;7.84;100.00;100271.44;5033876;28;20024;-43
2023/01/12 04:29:39;;;;;;;16.48;3.60;;;;;;;7.85;100.00;100293.72;5042288;28;20104;-44
2023/01/12 04:32:05;;;;;;;22.23;5.05;;;;;;;7.87;100.00;100271.13;5033926;28;20026;-44
2023/01/12 04:34:30;;;;;;;23.70;4.03;;;;;;;7.87;100.00;100264.91;5034623;28;20049;-43
2023/01/12 04:36:56;;;;;;;19.17;4.40;;;;;;;7.87;100.00;100278.28;5046808;28;20048;-44
2023/01/12 04:39:21;;;;;;;25.45;4.50;;;;;;;7.91;100.00;100277.75;5031185;28;20368;-44
2023/01/12 04:41:46;;;;;;;18.10;3.72;;;;;;;7.94;100.00;100279.25;5037755;28;20029;-44
2023/01/12 04:44:12;;;;;;;24.00;3.38;;;;;;;7.96;100.00;100261.16;5038124;28;20139;-44
2023/01/12 04:46:37;;;;;;;19.60;3.25;;;;;;;7.98;100.00;100259.13;5034305;28;20112;-44
2023/01/12 04:49:02;;;;;;;21.40;3.88;;;;;;;8.01;100.00;100261.47;5029480;28;20121;-44
2023/01/12 04:51:28;;;;;;;22.73;3.28;;;;;;;8.02;100.00;100256.94;5037051;28;20025;-44
2023/01/12 04:53:53;;;;;;;14.77;2.33;;;;;;;8.05;100.00;100284.19;5036627;28;20028;-44
2023/01/12 04:56:19;;;;;;;13.27;2.72;;;;;;;8.09;100.00;100269.44;5043065;28;20121;-44
2023/01/12 04:58:44;;;;;;;12.52;2.10;;;;;;;8.11;100.00;100261.22;5041534;28;20056;-43
2023/01/12 05:01:17;;;;;;;30.13;3.17;;;;;;;8.13;100.00;100246.59;5031568;28;20032;-43
2023/01/12 05:03:43;;;;;;;16.35;2.50;;;;;;;8.22;100.00;100268.81;5031090;28;20408;-43
2023/01/12 05:06:08;;;;;;;14.82;2.83;;;;;;;8.27;100.00;100255.72;5034472;28;20028;-43
2023/01/12 05:11:20;;;;;;;14.90;2.47;;;;;;;8.43;100.00;100270.03;5036900;28;20467;-45
2023/01/12 05:13:45;;;;;;;27.97;3.10;;;;;;;8.45;100.00;100255.41;5029971;28;20033;-45
2023/01/12 05:16:14;;;;;;;31.33;3.45;;;;;;;8.48;100.00;100270.31;5039340;28;20511;-43
2023/01/12 05:18:40;;;;;;;32.97;3.40;;;;;;;8.52;100.00;100283.16;5036266;28;20419;-43
2023/01/12 05:21:06;;;;;;;28.73;4.68;;;;;;;8.59;100.00;100236.84;5044556;28;20035;-44
2023/01/12 05:23:32;;;;;;;26.65;4.25;;;;;;;8.64;100.00;100247.84;5030594;28;20124;-44
2023/01/12 05:25:59;;;;;;;29.08;3.72;;;;;;;8.69;100.00;100248.97;5030892;28;20033;-43
2023/01/12 05:28:24;;;;;;;33.95;3.65;;;;;;;8.72;100.00;100255.81;5028742;28;20484;-44
2023/01/12 05:30:50;;;;;;;34.70;3.05;;;;;;;8.72;100.00;100240.53;5030696;28;20030;-44
2023/01/12 05:33:15;;;;;;;38.38;3.88;;;;;;;8.78;100.00;100261.25;5040611;28;20117;-43
2023/01/12 05:35:41;;;;;;;38.65;4.50;;;;;;;8.83;100.00;100263.41;5030107;28;20120;-43
2023/01/12 05:38:06;;;;;;;43.85;4.82;;;;;;;8.87;100.00;100247.75;5029822;28;20021;-44
2023/01/12 05:40:31;;;;;;;48.63;4.93;;;;;;;8.90;100.00;100229.44;5032739;28;20057;-45
2023/01/12 05:45:40;;;;;;;52.03;5.75;;;;;;;8.92;100.00;100248.84;5028858;28;20044;-44
2023/01/12 05:48:08;;;;;;;39.67;5.38;;;;;;;8.93;100.00;100268.50;5039460;28;20029;-43
2023/01/12 05:50:33;;;;;;;54.50;5.18;;;;;;;8.98;100.00;100258.88;5032565;28;20034;-44
2023/01/12 05:52:59;;;;;;;58.83;6.45;;;;;;;8.99;100.00;100243.59;5033132;28;20036;-42
2023/01/12 05:55:24;;;;;;;52.78;5.75;;;;;;;9.04;100.00;100240.34;5040836;28;20032;-42
2023/01/12 05:57:49;;;;;;;62.35;7.05;;;;;;;9.13;100.00;100241.91;5034589;28;20052;-44
2023/01/12 06:00:15;;;;;;;67.93;7.40;;;;;;;9.18;100.00;100231.44;5040269;28;20036;-43
2023/01/12 06:02:41;;;;;;;63.58;6.60;;;;;;;9.20;100.00;100246.34;5030655;28;20029;-41
2023/01/12 06:05:08;;;;;;;79.68;8.85;;;;;;;9.22;100.00;100248.84;5030699;28;20582;-40
2023/01/12 06:07:34;;;;;;;88.68;8.88;;;;;;;9.25;100.00;100280.69;5028884;28;20037;-40
2023/01/12 06:09:59;;;;;;;78.32;6.68;;;;;;;9.27;100.00;100248.25;5035555;28;20078;-40
2023/01/12 06:15:08;;;;;;;81.63;7.82;;;;;;;9.32;100.00;100246.69;5029659;28;20048;-41
2023/01/12 06:17:34;;;;;;;70.43;8.80;;;;;;;9.37;100.00;100241.59;5030441;28;20047;-40
2023/01/12 06:19:59;;;;;;;79.90;8.88;;;;;;;9.49;100.00;100249.16;5035849;28;20151;-42
2023/01/12 06:22:26;;;;;;;83.13;9.02;;;;;;;9.55;100.00;100261.81;5040777;28;20115;-41
2023/01/12 06:24:52;;;;;;;82.43;8.55;;;;;;;9.53;100.00;100231.63;5044086;28;20108;-41
2023/01/12 06:27:18;;;;;;;86.75;9.23;;;;;;;9.59;100.00;100249.69;5036747;28;20052;-41
2023/01/12 06:29:43;;;;;;;86.13;8.32;;;;;;;9.59;100.00;100242.47;5034446;28;20033;-41
2023/01/12 06:32:08;;;;;;;87.47;8.93;;;;;;;9.60;100.00;100257.53;5028882;28;20078;-40
2023/01/12 06:34:34;;;;;;;89.10;9.60;;;;;;;9.61;100.00;100234.19;5037780;28;20042;-41
2023/01/12 06:37:01;;;;;;;70.20;7.55;;;;;;;9.67;100.00;100236.97;5030048;28;20025;-41
2023/01/12 06:39:27;;;;;;;71.50;7.33;;;;;;;9.71;100.00;100250.00;5033537;28;20550;-41
2023/01/12 06:44:36;;;;;;;78.10;8.13;;;;;;;9.77;100.00;100230.41;5041249;28;20061;-41
2023/01/12 06:47:03;;;;;;;72.40;8.55;;;;;;;9.79;100.00;100233.75;5035316;28;20392;-41
2023/01/12 06:49:28;;;;;;;77.63;8.35;;;;;;;9.80;100.00;100225.50;5038813;28;20026;-41
2023/01/12 06:51:53;;;;;;;73.13;6.85;;;;;;;9.82;100.00;100246.81;5032158;28;20031;-41
2023/01/12 06:54:19;;;;;;;70.38;7.05;;;;;;;9.86;100.00;100234.66;5035330;28;20096;-41
2023/01/12 06:56:44;;;;;;;58.72;7.03;;;;;;;9.90;100.00;100230.56;5044249;28;20312;-40
2023/01/12 06:59:11;;;;;;;58.47;8.07;;;;;;;9.92;100.00;100243.81;5038874;28;20431;-40
2023/01/12 07:01:37;;;;;;;51.00;5.82;;;;;;;10.01;100.00;100242.66;5038960;28;20026;-40
2023/01/12 07:04:02;;;;;;;61.53;6.65;;;;;;;9.99;100.00;100255.47;5033013;28;20473;-41
2023/01/12 07:06:28;;;;;;;60.13;6.80;;;;;;;9.96;100.00;100232.50;5038903;28;20029;-40
2023/01/12 07:08:53;;;;;;;60.72;6.05;;;;;;;9.97;100.00;100246.75;5035640;28;20459;-41
2023/01/12 07:11:18;;;;;;;53.15;6.57;;;;;;;9.95;100.00;100248.78;5051345;28;20431;-42
2023/01/12 07:13:44;;;;;;;66.72;6.70;;;;;;;9.95;100.00;100243.41;5041247;28;20361;-40
2023/01/12 07:16:09;;;;;;;55.20;5.93;;;;;;;9.98;100.00;100237.66;5039347;28;20040;-40
2023/01/12 07:18:34;;;;;;;47.45;6.28;;;;;;;9.98;100.00;100251.09;5042952;28;20030;-40
2023/01/12 07:21:07;;;;;;;57.20;5.97;;;;;;;9.98;100.00;100259.16;5032602;28;20033;-40
2023/01/12 07:23:32;;;;;;;69.60;7.18;;;;;;;9.99;100.00;100311.91;5030715;28;20482;-41
2023/01/12 07:25:57;;;;;;;49.05;6.20;;;;;;;10.03;100.00;100262.09;5032415;28;20124;-40
2023/01/12 07:28:23;;;;;;;52.80;7.72;;;;;;;10.04;100.00;100280.75;5032690;28;20159;-41
2023/01/12 07:30:48;;;;;;;59.05;6.68;;;;;;;10.03;100.00;100267.47;5039800;28;20068;-41
2023/01/12 07:33:15;;;;;;;58.13;6.00;;;;;;;9.99;100.00;100274.28;5032139;28;20021;-43
2023/01/12 07:35:41;;;;;;;57.90;6.15;;;;;;;9.99;100.00;100276.97;5032650;28;20186;-40
2023/01/12 07:38:07;;;;;;;61.10;6.45;;;;;;;9.96;100.00;100261.22;5044585;28;20540;-40
2023/01/12 07:40:33;;;;;;;69.68;6.97;;;;;;;9.95;100.00;100284.56;5045033;28;20047;-40
2023/01/12 07:43:03;;;;;;;63.17;6.47;;;;;;;9.97;100.00;100295.13;5044009;28;20024;-41
2023/01/12 07:45:29;;;;;;;66.97;7.38;;;;;;;9.99;100.00;100290.41;5051894;28;20396;-41
2023/01/12 07:47:54;;;;;;;53.88;7.38;;;;;;;10.00;100.00;100284.81;5034029;28;20048;-42
2023/01/12 07:50:24;;;;;;;63.63;6.60;;;;;;;10.00;100.00;100327.00;5046804;28;20029;-41
2023/01/12 07:52:50;;;;;;;56.83;7.32;;;;;;;10.02;100.00;100304.28;5033062;28;20030;-41
2023/01/12 07:55:18;;;;;;;59.92;5.85;;;;;;;10.02;100.00;100301.59;5032225;28;20037;-41
2023/01/12 07:57:44;;;;;;;64.93;6.75;;;;;;;10.02;100.00;100308.84;5032100;28;20060;-42
2023/01/12 08:00:10;;;;;;;72.60;8.15;;;;;;;10.02;100.00;100314.22;5042625;28;20029;-41
2023/01/12 08:02:35;;;;;;;57.10;7.30;;;;;;;10.04;100.00;100306.81;5042403;28;20032;-40
2023/01/12 08:05:00;;;;;;;54.47;7.65;;;;;;;10.09;100.00;100299.81;5040775;28;20398;-42
2023/01/12 08:07:26;;;;;;;56.35;6.15;;;;;;;10.12;100.00;100320.13;5036931;28;20021;-43
2023/01/12 08:09:51;;;;;;;50.83;5.28;;;;;;;10.12;100.00;100320.13;5042312;28;20049;-44
2023/01/12 08:12:16;;;;;;;56.60;4.97;;;;;;;10.15;100.00;100314.34;5041435;28;20021;-43
2023/01/12 08:14:42;;;;;;;71.35;6.00;;;;;;;10.17;100.00;100312.31;5040763;28;20497;-43
2023/01/12 08:17:12;;;;;;;48.17;5.80;;;;;;;10.19;100.00;100318.34;5048116;28;20562;-44
2023/01/12 08:19:48;;;;;;;50.25;5.65;;;;;;;10.17;100.00;100328.44;5031148;28;20302;-42
2023/01/12 08:22:19;;;;;;;67.80;6.65;;;;;;;10.19;100.00;100341.69;5038655;28;20108;-43
2023/01/12 08:24:52;;;;;;;63.35;7.60;;;;;;;10.16;100.00;100334.81;5039351;28;20040;-43
2023/01/12 08:27:21;;;;;;;61.63;6.63;;;;;;;10.14;100.00;100331.53;5032688;28;20033;-41
2023/01/12 08:29:49;;;;;;;73.93;7.40;;;;;;;10.13;100.00;100326.31;5044934;28;20032;-41
2023/01/12 08:32:17;;;;;;;54.13;6.43;;;;;;;10.15;100.00;100354.69;5038425;28;20029;-42
2023/01/12 08:34:44;;;;;;;63.38;6.18;;;;;;;10.13;100.00;100354.03;5038940;28;20061;-41
2023/01/12 08:37:12;;;;;;;64.60;8.00;;;;;;;10.09;100.00;100368.91;5033895;28;20025;-41
2023/01/12 08:39:38;;;;;;;61.28;6.45;;;;;;;10.09;100.00;100360.84;5040283;28;20397;-41
2023/01/12 08:42:03;;;;;;;63.67;6.60;;;;;;;10.09;100.00;100364.34;5039140;28;20055;-40
2023/01/12 08:44:32;;;;;;;75.45;8.05;;;;;;;10.10;100.00;100370.56;5042287;28;20041;-41
2023/01/12 08:46:58;;;;;;;64.35;7.70;;;;;;;10.10;100.00;100360.63;5038039;28;20029;-39
2023/01/12 08:49:25;;;;;;;71.57;7.72;;;;;;;10.11;100.00;100358.78;5035267;28;20036;-39
2023/01/12 08:51:51;;;;;;;59.67;6.00;;;;;;;10.13;100.00;100355.91;5031433;28;20079;-39
2023/01/12 08:54:17;;;;;;;65.65;7.07;;;;;;;10.14;100.00;100360.25;5029908;28;20025;-41
2023/01/12 08:56:43;;;;;;;63.35;7.05;;;;;;;10.15;100.00;100368.13;5039164;28;20107;-40
2023/01/12 08:59:08;;;;;;;68.20;7.00;;;;;;;10.14;100.00;100355.72;5032885;28;20120;-41
2023/01/12 09:01:34;;;;;;;55.08;6.15;;;;;;;10.16;100.00;100377.03;5040998;28;20060;-41
2023/01/12 09:03:59;;;;;;;68.95;8.52;;;;;;;10.17;100.00;100366.09;5033574;28;20472;-40
2023/01/12 09:06:27;;;;;;;67.90;7.28;;;;;;;10.17;100.00;100382.22;5042459;28;20473;-40
2023/01/12 09:09:00;;;;;;;72.72;8.55;;;;;;;10.16;100.00;100361.72;5037930;28;20117;-40
2023/01/12 09:11:27;;;;;;;58.83;6.65;;;;;;;10.17;100.00;100379.53;5045171;28;20115;-40
2023/01/12 09:13:54;;;;;;;48.90;6.50;;;;;;;10.18;100.00;100370.44;5032117;28;20605;-41
2023/01/12 09:16:20;;;;;;;62.97;6.80;;;;;;;10.20;100.00;100391.78;5031300;28;20397;-42
2023/01/12 09:18:46;;;;;;;61.38;7.72;;;;;;;10.23;100.00;100381.44;5039466;28;20318;-42
2023/01/12 09:21:16;;;;;;;56.67;7.25;;;;;;;10.26;100.00;100383.75;5042283;28;20025;-41
2023/01/12 09:23:42;;;;;;;58.75;7.05;;;;;;;10.30;100.00;100398.53;5032639;28;20492;-41
2023/01/12 09:26:11;;;;;;;63.03;7.60;;;;;;;10.36;100.00;100391.56;5038193;28;20029;-42
2023/01/12 09:28:36;;;;;;;54.13;6.15;;;;;;;10.37;100.00;100392.38;5035330;28;20033;-41
2023/01/12 09:31:07;;;;;;;66.40;6.15;;;;;;;10.37;100.00;100389.69;5041783;28;20374;-41
2023/01/12 09:33:33;;;;;;;62.40;7.97;;;;;;;10.38;100.00;100394.06;5037747;28;20042;-42
2023/01/12 09:36:03;;;;;;;53.88;5.68;;;;;;;10.41;100.00;100418.72;5041463;28;20065;-41
2023/01/12 09:38:28;;;;;;;49.03;5.15;;;;;;;10.42;100.00;100414.97;5033983;28;20029;-41
2023/01/12 09:40:56;;;;;;;51.30;5.85;;;;;;;10.42;100.00;100412.28;5036797;28;20033;-42
2023/01/12 09:49:02;;;;;;;38.47;4.85;;;;;;;10.38;100.00;100418.28;5051297;28;20071;-41
2023/01/12 09:51:33;;;;;;;55.80;6.40;;;;;;;10.32;100.00;100434.16;5036566;28;20033;-41
2023/01/12 09:53:58;;;;;;;56.35;6.55;;;;;;;10.30;100.00;100422.75;5036658;28;20036;-40
2023/01/12 09:56:37;;;;;;;52.95;6.95;;;;;;;10.30;100.00;100429.97;5039731;28;20472;-40
2023/01/12 09:59:14;;;;;;;57.25;5.93;;;;;;;10.28;100.00;100416.72;5034210;28;20033;-41
2023/01/12 10:01:40;;;;;;;62.88;6.90;;;;;;;10.26;100.00;100437.53;5036363;28;20029;-41
2023/01/12 10:04:05;;;;;;;68.15;7.10;;;;;;;10.25;100.00;100438.56;5037740;28;20033;-41
2023/01/12 10:06:31;;;;;;;64.05;8.20;;;;;;;10.26;100.00;100444.78;5037018;28;20437;-41
2023/01/12 10:08:59;;;;;;;63.45;7.55;;;;;;;10.25;100.00;100449.34;5040757;28;20431;-40
2023/01/12 10:12:00;;;;;;;71.20;7.32;;;;;;;10.24;100.00;100458.44;5043816;28;20036;-41
2023/01/12 10:14:43;;;;;;;56.40;5.95;;;;;;;10.25;100.00;100462.78;5044805;28;20017;-39
2023/01/12 10:17:47;;;;;;;67.32;7.65;;;;;;;10.27;100.00;100451.84;5047784;28;20028;-41
2023/01/12 10:20:15;;;;;;;63.15;7.45;;;;;;;10.26;100.00;100459.06;5037046;28;20037;-41
2023/01/12 10:22:46;;;;;;;56.38;6.13;;;;;;;10.26;100.00;100455.53;5041498;28;20029;-40
2023/01/12 10:25:17;;;;;;;59.22;7.75;;;;;;;10.25;100.00;100453.88;5042126;28;20055;-41
2023/01/12 10:27:45;;;;;;;62.40;7.40;;;;;;;10.23;100.00;100446.00;5037128;28;20033;-41
2023/01/12 10:30:23;;;;;;;60.80;5.88;;;;;;;10.26;100.00;100466.31;5040702;28;20120;-40
2023/01/12 10:32:48;;;;;;;53.72;5.78;;;;;;;10.27;100.00;100458.09;5032295;28;20143;-40
2023/01/12 10:35:17;;;;;;;53.45;5.88;;;;;;;10.28;100.00;100443.59;5029702;28;20049;-40
2023/01/12 10:37:52;;;;;;;;;;;;;;;10.31;100.00;100453.16;5028010;28;20021;-40
2023/01/12 10:40:30;;;;;;;52.15;5.28;;;;;;;10.33;100.00;100456.50;5034268;28;19923;-40
2023/01/12 10:43:18;;;;;;;56.55;5.72;;;;;;;10.33;100.00;100462.69;5046214;28;20037;-41
2023/01/12 10:46:00;;;;;;;71.15;7.72;;;;;;;10.31;100.00;100459.38;5036200;28;20123;-40
2023/01/12 10:48:26;;;;;;;54.30;5.28;;;;;;;10.31;100.00;100453.97;5028720;28;20057;-41
2023/01/12 10:50:59;;;;;;;52.03;5.75;;;;;;;10.30;100.00;100456.88;5029362;28;20076;-40
2023/01/12 10:53:36;;;;;;;55.42;6.07;;;;;;;10.34;100.00;100436.63;5037224;28;20374;-40
2023/01/12 10:56:25;;;;;;;61.67;7.05;;;;;;;10.36;100.00;100449.91;5038030;28;20030;-40
2023/01/12 10:58:53;;;;;;;62.05;6.45;;;;;;;10.36;100.00;100456.09;5032213;28;20113;-40
2023/01/12 11:01:18;;;;;;;62.05;6.93;;;;;;;10.37;100.00;100446.19;5031309;28;20654;-41
2023/01/12 11:03:44;;;;;;;67.10;7.57;;;;;;;10.36;100.00;100453.41;5029582;28;20025;-41
2023/01/12 11:06:41;;;;;;;75.15;9.60;;;;;;;10.32;100.00;100450.28;5037293;28;20366;-39
2023/01/12 11:09:26;;;;;;;58.63;5.97;;;;;;;10.32;100.00;100439.53;5027320;28;20065;-40
2023/01/12 11:11:56;;;;;;;63.63;7.90;;;;;;;10.30;100.00;100429.97;5033494;28;20496;-41
2023/01/12 11:14:30;;;;;;;66.60;7.60;;;;;;;10.29;100.00;100434.53;5048504;28;20024;-42
2023/01/12 11:17:06;;;;;;;57.95;6.10;;;;;;;10.30;100.00;100446.94;5039692;28;20040;-42
2023/01/12 11:19:40;;;;;;;56.10;7.03;;;;;;;10.33;100.00;100430.41;5028239;28;20477;-39
2023/01/12 11:22:10;;;;;;;70.75;8.30;;;;;;;10.36;100.00;100436.44;5035243;28;20079;-39
2023/01/12 11:24:43;;;;;;;55.88;6.85;;;;;;;10.36;100.00;100433.75;5037002;28;20197;-40
2023/01/12 11:27:26;;;;;;;52.70;6.32;;;;;;;10.35;100.00;100438.31;5033349;28;20040;-40
2023/01/12 11:30:14;;;;;;;65.28;6.72;;;;;;;10.35;100.00;100419.47;5036729;28;20036;-40
2023/01/12 11:32:46;;;;;;;63.85;6.95;;;;;;;10.35;100.00;100421.31;5032555;28;20387;-41
2023/01/12 11:35:27;;;;;;;70.18;8.18;;;;;;;10.35;100.00;100422.19;5033758;28;20439;-41
2023/01/12 11:37:56;;;;;;;69.47;7.95;;;;;;;10.35;100.00;100405.19;5052247;28;20103;-41
2023/01/12 11:40:30;;;;;;;65.03;7.75;;;;;;;10.32;100.00;100425.22;5044932;28;20078;-40
2023/01/12 11:45:54;;;;;;;51.67;6.40;;;;;;;10.33;100.00;100421.53;5038460;28;20071;-41
2023/01/12 11:48:24;;;;;;;69.68;7.07;;;;;;;10.31;100.00;100419.00;5031347;28;20510;-40
2023/01/12 11:50:51;;;;;;;67.53;8.13;;;;;;;10.32;100.00;100423.38;5033837;28;20037;-40
2023/01/12 11:53:21;;;;;;;63.22;7.15;;;;;;;10.33;100.00;100413.47;5037508;28;20018;-40
2023/01/12 11:56:23;;;;;;;60.60;6.82;;;;;;;10.29;100.00;100423.78;5047762;28;20086;-41
2023/01/12 11:59:13;;;;;;;73.45;6.47;;;;;;;10.31;100.00;100416.31;5048278;28;20021;-41